createdAt,value
2017-09-16T00:00:32.402Z,12.11
2017-09-16T00:01:32.078Z,12.08
2017-09-16T00:02:32.387Z,12.11
2017-09-16T00:03:32.068Z,12.08
2017-09-16T00:04:32.064Z,12.11
2017-09-16T00:05:32.064Z,11.97
2017-09-16T00:06:32.367Z,11.96
2017-09-16T00:07:32.358Z,11.91
2017-09-16T00:08:32.042Z,11.96
2017-09-16T00:09:32.033Z,12
2017-09-16T00:10:32.345Z,11.95
2017-09-16T00:11:32.435Z,11.96
2017-09-16T00:12:32.018Z,12.12
2017-09-16T00:13:32.012Z,12.03
2017-09-16T00:14:32.003Z,12.14
2017-09-16T00:15:31.689Z,12.12
2017-09-16T00:16:32.097Z,12.08
2017-09-16T00:17:32.090Z,12.2
2017-09-16T00:18:31.672Z,12.18
2017-09-16T00:19:31.669Z,12.2
2017-09-16T00:20:32.294Z,12.29
2017-09-16T00:21:31.653Z,12.2
2017-09-16T00:22:32.374Z,12.18
2017-09-16T00:23:31.958Z,12.25
2017-09-16T00:24:31.638Z,12.23
2017-09-16T00:25:32.254Z,12.23
2017-09-16T00:26:31.940Z,12.18
2017-09-16T00:27:31.931Z,12.14
2017-09-16T00:28:32.239Z,12.15
2017-09-16T00:29:31.920Z,12.12
2017-09-16T00:30:31.917Z,12.25
2017-09-16T00:31:32.221Z,12.1
2017-09-16T00:32:31.906Z,12.18
2017-09-16T00:33:31.902Z,12.18
2017-09-16T00:34:31.894Z,12.1
2017-09-16T00:35:31.888Z,12.11
2017-09-16T00:36:31.884Z,12.14
2017-09-16T00:37:32.194Z,12.02
2017-09-16T00:38:31.659Z,11.97
2017-09-16T00:39:31.555Z,11.99
2017-09-16T00:40:31.549Z,11.97
2017-09-16T00:41:32.173Z,12.02
2017-09-16T00:42:32.163Z,12.03
2017-09-16T00:43:32.158Z,11.97
2017-09-16T00:44:31.727Z,12.02
2017-09-16T00:45:32.147Z,11.85
2017-09-16T00:46:32.151Z,11.96
2017-09-16T00:47:32.130Z,11.97
2017-09-16T00:48:31.815Z,11.99
2017-09-16T00:49:31.811Z,11.96
2017-09-16T00:50:31.801Z,11.99
2017-09-16T00:51:32.116Z,11.95
2017-09-16T00:52:32.107Z,12
2017-09-16T00:53:31.574Z,11.95
2017-09-16T00:54:32.090Z,12.02
2017-09-16T00:55:31.565Z,11.99
2017-09-16T00:56:31.459Z,12
2017-09-16T00:57:32.074Z,11.97
2017-09-16T00:58:31.762Z,11.93
2017-09-16T00:59:31.443Z,11.99
2017-09-16T01:00:31.436Z,11.97
2017-09-16T01:01:32.155Z,12.02
2017-09-16T01:02:31.739Z,12.02
2017-09-16T01:03:32.042Z,12.03
2017-09-16T01:04:31.726Z,12.02
2017-09-16T01:05:31.716Z,11.93
2017-09-16T01:06:31.816Z,11.88
2017-09-16T01:07:31.810Z,11.93
2017-09-16T01:08:31.706Z,11.88
2017-09-16T01:09:31.696Z,11.91
2017-09-16T01:10:32.104Z,11.93
2017-09-16T01:11:31.374Z,11.95
2017-09-16T01:12:31.681Z,11.89
2017-09-16T01:13:31.993Z,11.88
2017-09-16T01:14:31.981Z,11.78
2017-09-16T01:15:31.663Z,11.81
2017-09-16T01:16:31.756Z,11.77
2017-09-16T01:17:31.754Z,11.78
2017-09-16T01:18:31.335Z,11.78
2017-09-16T01:19:31.641Z,11.81
2017-09-16T01:20:31.322Z,11.78
2017-09-16T01:21:31.630Z,11.74
2017-09-16T01:22:31.724Z,11.76
2017-09-16T01:23:31.624Z,11.73
2017-09-16T01:24:31.400Z,11.78
2017-09-16T01:25:31.916Z,11.77
2017-09-16T01:26:31.606Z,11.74
2017-09-16T01:27:31.907Z,11.77
2017-09-16T01:28:31.597Z,11.77
2017-09-16T01:29:31.897Z,11.8
2017-09-16T01:30:31.582Z,11.81
2017-09-16T01:31:31.885Z,11.83
2017-09-16T01:32:31.568Z,11.83
2017-09-16T01:33:31.562Z,11.81
2017-09-16T01:34:31.555Z,11.85
2017-09-16T01:35:31.550Z,11.78
2017-09-16T01:36:31.649Z,11.73
2017-09-16T01:37:31.537Z,11.73
2017-09-16T01:38:31.847Z,11.77
2017-09-16T01:39:31.530Z,11.68
2017-09-16T01:40:31.833Z,11.76
2017-09-16T01:41:31.517Z,11.77
2017-09-16T01:42:31.515Z,11.7
2017-09-16T01:43:31.506Z,11.62
2017-09-16T01:44:31.500Z,11.62
2017-09-16T01:45:31.493Z,11.52
2017-09-16T01:46:31.276Z,11.63
2017-09-16T01:47:31.170Z,11.56
2017-09-16T01:48:31.480Z,11.63
2017-09-16T01:49:31.159Z,11.62
2017-09-16T01:50:31.878Z,11.6
2017-09-16T01:51:31.149Z,11.65
2017-09-16T01:52:31.453Z,11.62
2017-09-16T01:53:31.893Z,11.65
2017-09-16T01:54:31.756Z,11.7
2017-09-16T01:55:31.757Z,11.76
2017-09-16T01:56:31.741Z,11.74
2017-09-16T01:57:31.112Z,11.68
2017-09-16T01:58:31.733Z,11.76
2017-09-16T01:59:31.203Z,11.78
2017-09-16T02:00:31.406Z,11.62
2017-09-16T02:01:31.403Z,11.6
2017-09-16T02:02:31.809Z,11.67
2017-09-16T02:03:31.706Z,11.56
2017-09-16T02:04:31.485Z,11.6
2017-09-16T02:05:31.068Z,11.68
2017-09-16T02:06:31.373Z,11.76
2017-09-16T02:07:31.679Z,11.71
2017-09-16T02:08:31.674Z,11.67
2017-09-16T02:09:31.357Z,11.73
2017-09-16T02:10:31.662Z,11.67
2017-09-16T02:11:31.544Z,11.68
2017-09-16T02:12:31.027Z,11.71
2017-09-16T02:13:31.333Z,11.76
2017-09-16T02:14:31.329Z,11.76
2017-09-16T02:15:31.323Z,11.77
2017-09-16T02:16:31.727Z,11.77
2017-09-16T02:17:31.312Z,11.81
2017-09-16T02:18:31.313Z,11.83
2017-09-16T02:19:31.009Z,11.88
2017-09-16T02:20:31.393Z,11.96
2017-09-16T02:21:31.288Z,11.96
2017-09-16T02:22:31.282Z,11.81
2017-09-16T02:23:31.596Z,11.81
2017-09-16T02:24:31.275Z,11.73
2017-09-16T02:25:31.053Z,11.71
2017-09-16T02:26:31.049Z,11.73
2017-09-16T02:27:31.254Z,11.68
2017-09-16T02:28:31.558Z,11.77
2017-09-16T02:29:31.238Z,11.74
2017-09-16T02:30:31.335Z,11.81
2017-09-16T02:31:31.230Z,11.86
2017-09-16T02:32:31.323Z,11.93
2017-09-16T02:33:31.222Z,11.97
2017-09-16T02:34:31.217Z,11.99
2017-09-16T02:35:31.311Z,12.02
2017-09-16T02:36:31.200Z,11.97
2017-09-16T02:37:31.295Z,11.99
2017-09-16T02:38:31.506Z,12.03
2017-09-16T02:39:31.185Z,12.08
2017-09-16T02:40:31.179Z,12.11
2017-09-16T02:41:31.487Z,12.15
2017-09-16T02:42:30.957Z,12.11
2017-09-16T02:43:30.851Z,12.15
2017-09-16T02:44:31.566Z,12.12
2017-09-16T02:45:31.146Z,12.15
2017-09-16T02:46:31.148Z,12.12
2017-09-16T02:47:31.241Z,12.14
2017-09-16T02:48:30.917Z,12.18
2017-09-16T02:49:31.125Z,12.11
2017-09-16T02:50:31.435Z,12.11
2017-09-16T02:51:30.802Z,12.25
2017-09-16T02:52:31.619Z,12.11
2017-09-16T02:53:31.103Z,12.08
2017-09-16T02:54:31.411Z,12.11
2017-09-16T02:55:31.098Z,12.14
2017-09-16T02:56:30.773Z,12.18
2017-09-16T02:57:31.081Z,12.14
2017-09-16T02:58:30.864Z,12.2
2017-09-16T02:59:31.166Z,12.14
2017-09-16T03:00:31.375Z,12.15
2017-09-16T03:01:30.744Z,12.17
2017-09-16T03:02:31.052Z,12.2
2017-09-16T03:03:31.044Z,12.18
2017-09-16T03:04:31.041Z,12.23
2017-09-16T03:05:31.132Z,12.17
2017-09-16T03:06:30.814Z,12.18
2017-09-16T03:07:31.434Z,12.25
2017-09-16T03:08:31.426Z,12.11
2017-09-16T03:09:30.696Z,12.12
2017-09-16T03:10:31.111Z,12.11
2017-09-16T03:11:30.685Z,12.11
2017-09-16T03:12:31.404Z,12.12
2017-09-16T03:13:31.399Z,12.14
2017-09-16T03:14:31.080Z,12.14
2017-09-16T03:15:31.288Z,12.07
2017-09-16T03:16:30.971Z,12.14
2017-09-16T03:17:30.968Z,12.14
2017-09-16T03:18:30.644Z,12.14
2017-09-16T03:19:31.052Z,12.17
2017-09-16T03:20:30.945Z,12.23
2017-09-16T03:21:31.041Z,12.23
2017-09-16T03:22:30.933Z,12.23
2017-09-16T03:23:31.260Z,12.25
2017-09-16T03:24:30.921Z,12.12
2017-09-16T03:25:30.917Z,12.14
2017-09-16T03:26:31.226Z,12.25
2017-09-16T03:27:30.598Z,12.12
2017-09-16T03:28:30.902Z,12.11
2017-09-16T03:29:30.684Z,12.21
2017-09-16T03:30:31.209Z,12.21
2017-09-16T03:31:31.298Z,12.15
2017-09-16T03:32:31.186Z,12.1
2017-09-16T03:33:30.873Z,12.11
2017-09-16T03:34:30.865Z,12.15
2017-09-16T03:35:31.270Z,12.1
2017-09-16T03:36:30.855Z,12.17
2017-09-16T03:37:30.538Z,12.18
2017-09-16T03:38:30.843Z,12.14
2017-09-16T03:39:30.838Z,12.14
2017-09-16T03:40:31.145Z,12.12
2017-09-16T03:41:30.511Z,12.2
2017-09-16T03:42:30.515Z,12.3
2017-09-16T03:43:31.127Z,12.26
2017-09-16T03:44:30.495Z,12.23
2017-09-16T03:45:30.801Z,12.18
2017-09-16T03:46:30.582Z,12.1
2017-09-16T03:47:30.790Z,12.18
2017-09-16T03:48:30.475Z,12.21
2017-09-16T03:49:31.089Z,12.25
2017-09-16T03:50:31.085Z,12.17
2017-09-16T03:51:30.767Z,12.12
2017-09-16T03:52:30.762Z,12.11
2017-09-16T03:53:30.443Z,12.21
2017-09-16T03:54:30.750Z,12.1
2017-09-16T03:55:31.054Z,12.1
2017-09-16T03:56:30.740Z,12.11
2017-09-16T03:57:30.519Z,12.18
2017-09-16T03:58:31.037Z,12.15
2017-09-16T03:59:30.819Z,12.25
2017-09-16T04:00:30.716Z,12.18
2017-09-16T04:01:31.121Z,12.15
2017-09-16T04:02:30.800Z,12.17
2017-09-16T04:03:30.699Z,12.15
2017-09-16T04:04:30.690Z,12.15
2017-09-16T04:05:30.373Z,12.18
2017-09-16T04:06:30.992Z,12.18
2017-09-16T04:07:30.774Z,12.23
2017-09-16T04:08:30.664Z,12.17
2017-09-16T04:09:30.979Z,12.11
2017-09-16T04:10:30.655Z,12.14
2017-09-16T04:11:30.963Z,12.08
2017-09-16T04:12:30.645Z,12.18
2017-09-16T04:13:30.949Z,12.14
2017-09-16T04:14:30.947Z,12.1
2017-09-16T04:15:30.940Z,12.12
2017-09-16T04:16:30.626Z,12.12
2017-09-16T04:17:30.305Z,12.07
2017-09-16T04:18:30.928Z,12.17
2017-09-16T04:19:30.607Z,12.15
2017-09-16T04:20:30.909Z,12.12
2017-09-16T04:21:31.016Z,12.11
2017-09-16T04:22:30.901Z,12.05
2017-09-16T04:23:30.894Z,12
2017-09-16T04:24:30.574Z,12.02
2017-09-16T04:25:30.570Z,12
2017-09-16T04:26:30.879Z,11.99
2017-09-16T04:27:30.971Z,12.03
2017-09-16T04:28:30.555Z,11.95
2017-09-16T04:29:30.546Z,12.03
2017-09-16T04:30:30.854Z,12.02
2017-09-16T04:31:30.944Z,11.97
2017-09-16T04:32:30.626Z,12
2017-09-16T04:33:30.522Z,12
2017-09-16T04:34:30.206Z,11.97
2017-09-16T04:35:30.610Z,11.99
2017-09-16T04:36:30.193Z,11.96
2017-09-16T04:37:30.183Z,11.97
2017-09-16T04:38:30.493Z,11.91
2017-09-16T04:39:30.799Z,11.95
2017-09-16T04:40:30.480Z,11.89
2017-09-16T04:41:30.476Z,11.99
2017-09-16T04:42:30.568Z,12.03
2017-09-16T04:43:30.773Z,12.03
2017-09-16T04:44:30.771Z,11.95
2017-09-16T04:45:30.242Z,12.02
2017-09-16T04:46:30.446Z,11.99
2017-09-16T04:47:30.130Z,12.03
2017-09-16T04:48:30.435Z,12.02
2017-09-16T04:49:30.115Z,12.02
2017-09-16T04:50:30.213Z,12.07
2017-09-16T04:51:30.729Z,12.11
2017-09-16T04:52:30.098Z,12.02
2017-09-16T04:53:30.719Z,11.96
2017-09-16T04:54:30.722Z,12
2017-09-16T04:55:30.392Z,12
2017-09-16T04:56:30.491Z,11.95
2017-09-16T04:57:30.381Z,11.99
2017-09-16T04:58:30.694Z,12.02
2017-09-16T04:59:30.683Z,12.03
2017-09-16T05:00:30.367Z,11.95
2017-09-16T05:01:30.460Z,11.96
2017-09-16T05:02:30.765Z,11.96
2017-09-16T05:03:30.659Z,11.99
2017-09-16T05:04:30.656Z,11.85
2017-09-16T05:05:30.649Z,11.99
2017-09-16T05:06:30.642Z,11.88
2017-09-16T05:07:30.330Z,11.96
2017-09-16T05:08:30.629Z,11.91
2017-09-16T05:09:30.622Z,11.86
2017-09-16T05:10:30.722Z,11.81
2017-09-16T05:11:30.404Z,11.83
2017-09-16T05:12:30.298Z,11.88
2017-09-16T05:13:30.289Z,11.88
2017-09-16T05:14:30.280Z,11.89
2017-09-16T05:15:29.966Z,11.97
2017-09-16T05:16:30.273Z,11.95
2017-09-16T05:17:30.578Z,11.93
2017-09-16T05:18:30.146Z,11.95
2017-09-16T05:19:29.939Z,11.85
2017-09-16T05:20:30.250Z,11.85
2017-09-16T05:21:30.561Z,11.93
2017-09-16T05:22:30.648Z,11.99
2017-09-16T05:23:30.229Z,11.95
2017-09-16T05:24:30.540Z,11.93
2017-09-16T05:25:30.216Z,11.86
2017-09-16T05:26:30.210Z,11.81
2017-09-16T05:27:30.208Z,11.86
2017-09-16T05:28:30.613Z,11.91
2017-09-16T05:29:29.984Z,11.89
2017-09-16T05:30:30.291Z,11.97
2017-09-16T05:31:29.871Z,11.97
2017-09-16T05:32:30.185Z,11.97
2017-09-16T05:33:30.483Z,11.99
2017-09-16T05:34:29.862Z,11.89
2017-09-16T05:35:30.569Z,11.93
2017-09-16T05:36:30.154Z,11.95
2017-09-16T05:37:30.148Z,11.91
2017-09-16T05:38:30.142Z,11.97
2017-09-16T05:39:30.445Z,11.91
2017-09-16T05:40:30.129Z,11.86
2017-09-16T05:41:30.644Z,11.85
2017-09-16T05:42:30.122Z,11.85
2017-09-16T05:43:29.800Z,11.95
2017-09-16T05:44:30.209Z,11.96
2017-09-16T05:45:30.101Z,11.91
2017-09-16T05:46:29.784Z,12.07
2017-09-16T05:47:30.189Z,11.97
2017-09-16T05:48:30.410Z,12.03
2017-09-16T05:49:29.764Z,12.05
2017-09-16T05:50:30.070Z,12.02
2017-09-16T05:51:30.072Z,11.99
2017-09-16T05:52:29.847Z,12.03
2017-09-16T05:53:30.055Z,12.02
2017-09-16T05:54:30.247Z,11.99
2017-09-16T05:55:30.041Z,12
2017-09-16T05:56:29.721Z,12.02
2017-09-16T05:57:30.343Z,11.99
2017-09-16T05:58:30.022Z,12
2017-09-16T05:59:30.331Z,12.07
2017-09-16T06:00:30.021Z,12.02
2017-09-16T06:01:29.699Z,12.12
2017-09-16T06:02:30.013Z,12.15
2017-09-16T06:03:29.687Z,12.1
2017-09-16T06:04:29.998Z,12.1
2017-09-16T06:05:29.777Z,12.18
2017-09-16T06:06:29.987Z,12.11
2017-09-16T06:07:29.665Z,12.08
2017-09-16T06:08:29.975Z,12.14
2017-09-16T06:09:29.653Z,12.17
2017-09-16T06:10:29.959Z,12.11
2017-09-16T06:11:30.056Z,12.08
2017-09-16T06:12:29.950Z,12.12
2017-09-16T06:13:29.976Z,12.08
2017-09-16T06:14:30.246Z,12.18
2017-09-16T06:15:29.719Z,12.1
2017-09-16T06:16:29.711Z,12.11
2017-09-16T06:17:29.607Z,12.14
2017-09-16T06:18:29.917Z,12.11
2017-09-16T06:19:30.319Z,12.12
2017-09-16T06:20:29.590Z,12.12
2017-09-16T06:21:30.210Z,12.12
2017-09-16T06:22:30.205Z,12.14
2017-09-16T06:23:30.208Z,12.14
2017-09-16T06:24:29.878Z,12.12
2017-09-16T06:25:29.761Z,12.23
2017-09-16T06:26:29.874Z,12.17
2017-09-16T06:27:29.649Z,12.36
2017-09-16T06:28:30.170Z,12.32
2017-09-16T06:29:29.536Z,12.35
2017-09-16T06:30:30.258Z,12.35
2017-09-16T06:31:29.838Z,12.32
2017-09-16T06:32:29.832Z,12.32
2017-09-16T06:33:30.149Z,12.26
2017-09-16T06:34:30.129Z,12.3
2017-09-16T06:35:29.919Z,12.28
2017-09-16T06:36:29.806Z,12.28
2017-09-16T06:37:29.807Z,12.23
2017-09-16T06:38:29.794Z,12.33
2017-09-16T06:39:29.790Z,12.36
2017-09-16T06:40:29.888Z,12.35
2017-09-16T06:41:29.781Z,12.33
2017-09-16T06:42:30.086Z,12.37
2017-09-16T06:43:29.769Z,12.35
2017-09-16T06:44:29.452Z,12.44
2017-09-16T06:45:29.860Z,12.45
2017-09-16T06:46:29.437Z,12.44
2017-09-16T06:47:29.854Z,12.48
2017-09-16T06:48:29.737Z,12.44
2017-09-16T06:49:29.730Z,12.5
2017-09-16T06:50:30.042Z,12.44
2017-09-16T06:51:30.137Z,12.48
2017-09-16T06:52:29.402Z,12.48
2017-09-16T06:53:29.709Z,12.47
2017-09-16T06:54:29.704Z,12.45
2017-09-16T06:55:29.700Z,12.48
2017-09-16T06:56:29.792Z,12.48
2017-09-16T06:57:29.687Z,12.47
2017-09-16T06:58:29.679Z,12.55
2017-09-16T06:59:29.987Z,12.73
2017-09-16T07:00:29.767Z,12.63
2017-09-16T07:01:29.764Z,12.58
2017-09-16T07:02:29.658Z,12.57
2017-09-16T07:03:29.964Z,12.58
2017-09-16T07:04:29.646Z,12.58
2017-09-16T07:05:29.643Z,12.62
2017-09-16T07:06:29.317Z,12.53
2017-09-16T07:07:29.312Z,12.62
2017-09-16T07:08:29.623Z,12.57
2017-09-16T07:09:29.927Z,12.68
2017-09-16T07:10:29.613Z,12.8
2017-09-16T07:11:29.292Z,12.76
2017-09-16T07:12:29.598Z,12.68
2017-09-16T07:13:29.591Z,12.73
2017-09-16T07:14:29.686Z,12.73
2017-09-16T07:15:29.583Z,12.78
2017-09-16T07:16:29.572Z,12.7
2017-09-16T07:17:29.989Z,12.69
2017-09-16T07:18:29.872Z,12.78
2017-09-16T07:19:29.245Z,12.75
2017-09-16T07:20:29.868Z,12.55
2017-09-16T07:21:29.856Z,12.62
2017-09-16T07:22:29.540Z,12.58
2017-09-16T07:23:29.530Z,12.68
2017-09-16T07:24:29.837Z,12.68
2017-09-16T07:25:29.519Z,12.68
2017-09-16T07:26:29.305Z,12.73
2017-09-16T07:27:29.508Z,12.7
2017-09-16T07:28:29.507Z,12.7
2017-09-16T07:29:29.498Z,12.81
2017-09-16T07:30:29.492Z,12.83
2017-09-16T07:31:29.590Z,12.83
2017-09-16T07:32:29.482Z,12.84
2017-09-16T07:33:29.473Z,12.81
2017-09-16T07:34:29.471Z,12.72
2017-09-16T07:35:29.880Z,12.75
2017-09-16T07:36:29.459Z,12.7
2017-09-16T07:37:29.454Z,12.69
2017-09-16T07:38:29.447Z,12.68
2017-09-16T07:39:29.129Z,12.76
2017-09-16T07:40:29.756Z,12.83
2017-09-16T07:41:29.430Z,12.84
2017-09-16T07:42:29.942Z,12.8
2017-09-16T07:43:29.732Z,12.86
2017-09-16T07:44:29.096Z,12.95
2017-09-16T07:45:29.921Z,12.88
2017-09-16T07:46:29.499Z,12.87
2017-09-16T07:47:29.392Z,12.86
2017-09-16T07:48:29.698Z,12.83
2017-09-16T07:49:29.382Z,12.84
2017-09-16T07:50:29.578Z,12.88
2017-09-16T07:51:29.370Z,12.81
2017-09-16T07:52:29.678Z,12.83
2017-09-16T07:53:29.355Z,12.8
2017-09-16T07:54:29.141Z,12.75
2017-09-16T07:55:29.351Z,12.7
2017-09-16T07:56:29.339Z,12.76
2017-09-16T07:57:29.535Z,12.81
2017-09-16T07:58:29.535Z,12.8
2017-09-16T07:59:29.526Z,12.8
2017-09-16T08:00:29.522Z,12.84
2017-09-16T08:01:29.630Z,12.81
2017-09-16T08:02:29.306Z,12.81
2017-09-16T08:03:29.302Z,12.73
2017-09-16T08:04:29.297Z,12.78
2017-09-16T08:05:29.604Z,12.7
2017-09-16T08:06:29.486Z,12.68
2017-09-16T08:07:29.610Z,12.73
2017-09-16T08:08:29.275Z,12.81
2017-09-16T08:09:29.294Z,12.8
2017-09-16T08:10:29.582Z,12.83
2017-09-16T08:11:29.252Z,12.81
2017-09-16T08:12:29.663Z,12.81
2017-09-16T08:13:29.557Z,12.76
2017-09-16T08:14:29.024Z,12.78
2017-09-16T08:15:28.919Z,12.75
2017-09-16T08:16:29.011Z,12.83
2017-09-16T08:17:28.906Z,12.86
2017-09-16T08:18:29.325Z,12.86
2017-09-16T08:19:29.209Z,12.88
2017-09-16T08:20:29.515Z,12.88
2017-09-16T08:21:29.511Z,12.94
2017-09-16T08:22:29.292Z,12.98
2017-09-16T08:23:29.497Z,12.95
2017-09-16T08:24:28.867Z,13.02
2017-09-16T08:25:28.860Z,13.09
2017-09-16T08:26:28.856Z,13.09
2017-09-16T08:27:29.473Z,13.09
2017-09-16T08:28:29.468Z,13.12
2017-09-16T08:29:28.937Z,13.12
2017-09-16T08:30:29.458Z,13.19
2017-09-16T08:31:28.826Z,13.27
2017-09-16T08:32:29.132Z,13.26
2017-09-16T08:33:28.813Z,13.19
2017-09-16T08:34:28.808Z,13.28
2017-09-16T08:35:29.118Z,13.21
2017-09-16T08:36:28.796Z,13.28
2017-09-16T08:37:28.789Z,13.26
2017-09-16T08:38:29.414Z,13.17
2017-09-16T08:39:29.506Z,13.16
2017-09-16T08:40:29.442Z,13.21
2017-09-16T08:41:29.100Z,13.16
2017-09-16T08:42:29.178Z,13.06
2017-09-16T08:43:29.067Z,13.09
2017-09-16T08:44:29.474Z,13.05
2017-09-16T08:45:29.060Z,13.02
2017-09-16T08:46:29.052Z,13.06
2017-09-16T08:47:29.356Z,13.08
2017-09-16T08:48:29.451Z,12.99
2017-09-16T08:49:29.356Z,13.02
2017-09-16T08:50:29.031Z,12.98
2017-09-16T08:51:29.024Z,13.03
2017-09-16T08:52:29.328Z,12.99
2017-09-16T08:53:29.322Z,13.05
2017-09-16T08:54:29.006Z,13.06
2017-09-16T08:55:29.314Z,13.17
2017-09-16T08:56:29.306Z,13.23
2017-09-16T08:57:28.987Z,13.26
2017-09-16T08:58:28.985Z,13.28
2017-09-16T08:59:29.076Z,13.31
2017-09-16T09:00:29.070Z,13.26
2017-09-16T09:01:28.963Z,13.19
2017-09-16T09:02:28.957Z,13.16
2017-09-16T09:03:29.273Z,13.21
2017-09-16T09:04:29.258Z,13.26
2017-09-16T09:05:28.631Z,13.26
2017-09-16T09:06:28.935Z,13.37
2017-09-16T09:07:29.027Z,13.37
2017-09-16T09:08:28.925Z,13.24
2017-09-16T09:09:29.233Z,13.36
2017-09-16T09:10:28.601Z,13.4
2017-09-16T09:11:28.910Z,13.47
2017-09-16T09:12:28.587Z,13.5
2017-09-16T09:13:28.899Z,13.6
2017-09-16T09:14:29.203Z,13.52
2017-09-16T09:15:28.670Z,13.57
2017-09-16T09:16:29.229Z,13.58
2017-09-16T09:17:28.872Z,13.64
2017-09-16T09:18:28.863Z,13.78
2017-09-16T09:19:28.861Z,13.73
2017-09-16T09:20:28.959Z,13.79
2017-09-16T09:21:28.865Z,13.89
2017-09-16T09:22:28.842Z,13.94
2017-09-16T09:23:28.836Z,13.95
2017-09-16T09:24:28.931Z,14.11
2017-09-16T09:25:28.831Z,14.16
2017-09-16T09:26:28.819Z,14.19
2017-09-16T09:27:28.815Z,14.23
2017-09-16T09:28:29.120Z,14.36
2017-09-16T09:29:29.117Z,14.31
2017-09-16T09:30:28.900Z,14.26
2017-09-16T09:31:28.793Z,14.33
2017-09-16T09:32:29.113Z,14.38
2017-09-16T09:33:28.778Z,14.33
2017-09-16T09:34:28.778Z,14.36
2017-09-16T09:35:28.457Z,14.49
2017-09-16T09:36:29.079Z,14.48
2017-09-16T09:37:28.778Z,14.48
2017-09-16T09:38:28.753Z,14.49
2017-09-16T09:39:28.747Z,14.58
2017-09-16T09:40:29.054Z,14.43
2017-09-16T09:41:28.738Z,14.37
2017-09-16T09:42:28.422Z,14.43
2017-09-16T09:43:28.723Z,14.48
2017-09-16T09:44:29.137Z,14.49
2017-09-16T09:45:28.814Z,14.49
2017-09-16T09:46:28.709Z,14.51
2017-09-16T09:47:28.805Z,14.53
2017-09-16T09:48:28.486Z,14.43
2017-09-16T09:49:28.690Z,14.49
2017-09-16T09:50:29.101Z,14.51
2017-09-16T09:51:28.877Z,14.61
2017-09-16T09:52:28.674Z,14.66
2017-09-16T09:53:28.978Z,14.7
2017-09-16T09:54:28.664Z,14.82
2017-09-16T09:55:28.972Z,14.77
2017-09-16T09:56:28.754Z,14.96
2017-09-16T09:57:28.647Z,14.93
2017-09-16T09:58:28.952Z,14.94
2017-09-16T09:59:28.748Z,14.92
2017-09-16T10:00:28.628Z,14.94
2017-09-16T10:01:28.626Z,15.04
2017-09-16T10:02:28.619Z,14.99
2017-09-16T10:03:28.612Z,14.94
2017-09-16T10:04:28.399Z,15.05
2017-09-16T10:05:28.918Z,15
2017-09-16T10:06:28.597Z,15.08
2017-09-16T10:07:29.001Z,15.07
2017-09-16T10:08:28.273Z,15.1
2017-09-16T10:09:28.580Z,15.12
2017-09-16T10:10:28.360Z,15.14
2017-09-16T10:11:28.667Z,15.12
2017-09-16T10:12:28.566Z,15.05
2017-09-16T10:13:28.972Z,15.19
2017-09-16T10:14:28.238Z,15.05
2017-09-16T10:15:28.859Z,15.14
2017-09-16T10:16:28.642Z,15.23
2017-09-16T10:17:28.323Z,15.37
2017-09-16T10:18:28.544Z,15.35
2017-09-16T10:19:28.526Z,15.36
2017-09-16T10:20:28.835Z,15.5
2017-09-16T10:21:28.514Z,15.48
2017-09-16T10:22:28.920Z,15.54
2017-09-16T10:23:28.189Z,15.62
2017-09-16T10:24:28.500Z,15.59
2017-09-16T10:25:28.595Z,15.66
2017-09-16T10:26:28.484Z,15.72
2017-09-16T10:27:28.481Z,15.69
2017-09-16T10:28:28.478Z,15.73
2017-09-16T10:29:28.157Z,15.76
2017-09-16T10:30:28.152Z,15.73
2017-09-16T10:31:28.147Z,15.91
2017-09-16T10:32:28.454Z,15.92
2017-09-16T10:33:28.763Z,16
2017-09-16T10:34:28.130Z,16.06
2017-09-16T10:35:28.438Z,16.08
2017-09-16T10:36:28.429Z,16.06
2017-09-16T10:37:28.434Z,16.12
2017-09-16T10:38:28.210Z,16.08
2017-09-16T10:39:28.413Z,16.13
2017-09-16T10:40:28.724Z,16.08
2017-09-16T10:41:28.403Z,16
2017-09-16T10:42:28.406Z,15.99
2017-09-16T10:43:28.494Z,16.03
2017-09-16T10:44:28.801Z,15.98
2017-09-16T10:45:28.699Z,16
2017-09-16T10:46:28.377Z,15.98
2017-09-16T10:47:28.685Z,15.98
2017-09-16T10:48:28.366Z,15.98
2017-09-16T10:49:28.363Z,15.99
2017-09-16T10:50:28.668Z,16.03
2017-09-16T10:51:28.351Z,15.99
2017-09-16T10:52:28.347Z,16.02
2017-09-16T10:53:28.341Z,16.03
2017-09-16T10:54:28.123Z,16.09
2017-09-16T10:55:28.333Z,16.1
2017-09-16T10:56:28.642Z,16.21
2017-09-16T10:57:28.320Z,16.25
2017-09-16T10:58:28.100Z,16.31
2017-09-16T10:59:28.720Z,16.32
2017-09-16T11:00:28.723Z,16.34
2017-09-16T11:01:28.299Z,16.44
2017-09-16T11:02:28.705Z,16.55
2017-09-16T11:03:28.701Z,16.58
2017-09-16T11:04:28.071Z,16.58
2017-09-16T11:05:28.063Z,16.61
2017-09-16T11:06:28.271Z,16.51
2017-09-16T11:07:28.373Z,16.58
2017-09-16T11:08:28.051Z,16.58
2017-09-16T11:09:28.256Z,16.58
2017-09-16T11:10:27.940Z,16.59
2017-09-16T11:11:28.348Z,16.5
2017-09-16T11:12:28.667Z,16.65
2017-09-16T11:13:28.334Z,16.66
2017-09-16T11:14:28.237Z,16.68
2017-09-16T11:15:28.228Z,16.69
2017-09-16T11:16:28.342Z,16.79
2017-09-16T11:17:28.218Z,16.74
2017-09-16T11:18:27.897Z,16.8
2017-09-16T11:19:27.891Z,16.87
2017-09-16T11:20:28.299Z,16.86
2017-09-16T11:21:28.196Z,16.94
2017-09-16T11:22:27.876Z,16.89
2017-09-16T11:23:28.184Z,16.92
2017-09-16T11:24:28.279Z,17.01
2017-09-16T11:25:28.273Z,17.1
2017-09-16T11:26:27.953Z,17.07
2017-09-16T11:27:28.582Z,17.05
2017-09-16T11:28:28.467Z,17.13
2017-09-16T11:29:28.568Z,17.16
2017-09-16T11:30:28.460Z,17.2
2017-09-16T11:31:28.458Z,17.28
2017-09-16T11:32:28.457Z,17.32
2017-09-16T11:33:27.818Z,17.37
2017-09-16T11:34:28.229Z,17.44
2017-09-16T11:35:28.437Z,17.54
2017-09-16T11:36:28.537Z,17.68
2017-09-16T11:37:28.114Z,17.69
2017-09-16T11:38:28.419Z,17.66
2017-09-16T11:39:28.207Z,17.84
2017-09-16T11:40:28.408Z,17.82
2017-09-16T11:41:28.505Z,17.88
2017-09-16T11:42:28.088Z,17.94
2017-09-16T11:43:28.393Z,17.93
2017-09-16T11:44:28.177Z,17.9
2017-09-16T11:45:27.760Z,17.87
2017-09-16T11:46:28.169Z,17.87
2017-09-16T11:47:27.750Z,17.88
2017-09-16T11:48:28.373Z,17.86
2017-09-16T11:49:28.465Z,17.97
2017-09-16T11:50:28.359Z,17.98
2017-09-16T11:51:28.040Z,17.91
2017-09-16T11:52:28.452Z,17.93
2017-09-16T11:53:28.350Z,18.05
2017-09-16T11:54:28.337Z,18.03
2017-09-16T11:55:28.020Z,18.15
2017-09-16T11:56:27.702Z,18.11
2017-09-16T11:57:28.327Z,18.02
2017-09-16T11:58:28.322Z,17.95
2017-09-16T11:59:28.412Z,18
2017-09-16T12:00:28.416Z,17.91
2017-09-16T12:01:28.019Z,18.02
2017-09-16T12:02:27.986Z,17.98
2017-09-16T12:03:27.666Z,17.98
2017-09-16T12:04:28.000Z,18.02
2017-09-16T12:05:27.970Z,17.97
2017-09-16T12:06:27.653Z,18
2017-09-16T12:07:28.285Z,17.88
2017-09-16T12:08:27.644Z,18.02
2017-09-16T12:09:28.048Z,18.03
2017-09-16T12:10:28.259Z,18
2017-09-16T12:11:27.940Z,17.97
2017-09-16T12:12:27.621Z,17.94
2017-09-16T12:13:27.933Z,17.86
2017-09-16T12:14:28.025Z,17.98
2017-09-16T12:15:28.232Z,18.03
2017-09-16T12:16:28.334Z,18.13
2017-09-16T12:17:28.223Z,18.12
2017-09-16T12:18:27.906Z,18.27
2017-09-16T12:19:27.689Z,18.28
2017-09-16T12:20:28.213Z,18.3
2017-09-16T12:21:28.210Z,18.28
2017-09-16T12:22:28.199Z,18.27
2017-09-16T12:23:28.196Z,18.28
2017-09-16T12:24:28.195Z,18.3
2017-09-16T12:25:27.868Z,18.16
2017-09-16T12:26:27.865Z,18.12
2017-09-16T12:27:27.861Z,18.08
2017-09-16T12:28:27.958Z,18.11
2017-09-16T12:29:27.954Z,18.12
2017-09-16T12:30:28.161Z,18.11
2017-09-16T12:31:27.528Z,18.06
2017-09-16T12:32:27.835Z,18.12
2017-09-16T12:33:27.521Z,17.94
2017-09-16T12:34:27.826Z,17.93
2017-09-16T12:35:28.235Z,17.97
2017-09-16T12:36:28.130Z,17.98
2017-09-16T12:37:27.812Z,18.03
2017-09-16T12:38:28.125Z,18.08
2017-09-16T12:39:28.117Z,18.05
2017-09-16T12:40:28.211Z,18.03
2017-09-16T12:41:27.480Z,18.03
2017-09-16T12:42:27.888Z,18.03
2017-09-16T12:43:27.782Z,18.08
2017-09-16T12:44:28.091Z,18.06
2017-09-16T12:45:27.462Z,18.08
2017-09-16T12:46:27.768Z,18.03
2017-09-16T12:47:27.865Z,18.12
2017-09-16T12:48:27.757Z,18.08
2017-09-16T12:49:28.064Z,18.12
2017-09-16T12:50:27.433Z,18.13
2017-09-16T12:51:28.088Z,18.12
2017-09-16T12:52:27.738Z,18.19
2017-09-16T12:53:27.732Z,18.24
2017-09-16T12:54:28.246Z,18.09
2017-09-16T12:55:27.727Z,18.23
2017-09-16T12:56:27.721Z,18.19